Iramshahr Airport

Airport
ICAO code: 
OIZI
IATA Code: 
IHR
Summary
ICAO Region: 
MID
Territory: 
Location: 
Sarzeh, Sistan and Baluchistan Province
Serving: 
Iramshahr
Elevation: 
2040 ft
Coordinates: 
Aerial View: 
27° 13' 42.988" N, 60° 43' 6.298" E
Metar
Observation
OIZI 261900Z 16010KT CAVOK 37/20 Q1001
Station
Iranshahr
Date/Time
2022-06-26 19:00:00
Wind direction
160°
Wind speed
10 kts
Lowest cloud amount
clouds and visibility OK
Temperature
37°C
Dew point
20°C
Humidity
37%
QNH
1001 hPa
Weather condition
n/a

Airport serving Iranshahr, Iran.

Climatology

Hot Desert climate (Köppen climate classification BWh).

Runways

Designator Length Width Surface Rops
17/35 2350 46 ASP No/No
Airport map: 
Aerial View: 

SKYbrary Partners:

Safety knowledge contributed by: